sensor_id;sensor_type;location;lat;lon;timestamp;temperature;humidity
18781;DHT22;9519;51.890;8.970;2022-11-27T00:04:29;6.50;99.90
18781;DHT22;9519;51.890;8.970;2022-11-27T00:09:31;6.50;99.90
18781;DHT22;9519;51.890;8.970;2022-11-27T00:14:35;6.50;99.90
18781;DHT22;9519;51.890;8.970;2022-11-27T00:19:37;6.40;99.90
18781;DHT22;9519;51.890;8.970;2022-11-27T00:24:39;6.50;99.90
18781;DHT22;9519;51.890;8.970;2022-11-27T00:29:42;6.40;99.90
18781;DHT22;9519;51.890;8.970;2022-11-27T00:34:44;6.40;99.90
18781;DHT22;9519;51.890;8.970;2022-11-27T00:39:47;6.40;99.90
18781;DHT22;9519;51.890;8.970;2022-11-27T00:44:52;6.30;99.90
18781;DHT22;9519;51.890;8.970;2022-11-27T00:49:54;6.30;99.90
18781;DHT22;9519;51.890;8.970;2022-11-27T00:54:56;6.20;99.90
18781;DHT22;9519;51.890;8.970;2022-11-27T00:59:59;6.30;99.90
18781;DHT22;9519;51.890;8.970;2022-11-27T01:05:01;6.30;99.90
18781;DHT22;9519;51.890;8.970;2022-11-27T01:10:04;6.20;99.90
18781;DHT22;9519;51.890;8.970;2022-11-27T01:15:10;6.20;99.90
18781;DHT22;9519;51.890;8.970;2022-11-27T01:20:12;6.20;99.90
18781;DHT22;9519;51.890;8.970;2022-11-27T01:25:14;6.20;99.90
18781;DHT22;9519;51.890;8.970;2022-11-27T01:30:17;6.10;99.90
18781;DHT22;9519;51.890;8.970;2022-11-27T01:35:20;6.00;99.90
18781;DHT22;9519;51.890;8.970;2022-11-27T01:40:22;6.10;99.90
18781;DHT22;9519;51.890;8.970;2022-11-27T01:45:26;6.10;99.90
18781;DHT22;9519;51.890;8.970;2022-11-27T01:50:30;6.10;99.90
18781;DHT22;9519;51.890;8.970;2022-11-27T01:55:38;6.30;99.90
18781;DHT22;9519;51.890;8.970;2022-11-27T02:00:46;6.10;99.90
18781;DHT22;9519;51.890;8.970;2022-11-27T02:05:48;5.90;99.90
18781;DHT22;9519;51.890;8.970;2022-11-27T02:10:53;6.30;99.90
18781;DHT22;9519;51.890;8.970;2022-11-27T02:16:11;6.00;99.90
18781;DHT22;9519;51.890;8.970;2022-11-27T02:21:22;5.90;99.90
18781;DHT22;9519;51.890;8.970;2022-11-27T02:27:02;5.90;99.90
18781;DHT22;9519;51.890;8.970;2022-11-27T02:32:18;5.80;99.90
18781;DHT22;9519;51.890;8.970;2022-11-27T02:37:30;5.80;99.90
18781;DHT22;9519;51.890;8.970;2022-11-27T02:42:38;5.80;99.90
18781;DHT22;9519;51.890;8.970;2022-11-27T02:47:46;5.80;99.90
18781;DHT22;9519;51.890;8.970;2022-11-27T02:52:53;5.80;99.90
18781;DHT22;9519;51.890;8.970;2022-11-27T02:58:04;6.10;99.90
18781;DHT22;9519;51.890;8.970;2022-11-27T03:03:12;5.70;99.90
18781;DHT22;9519;51.890;8.970;2022-11-27T03:08:21;5.70;99.90
18781;DHT22;9519;51.890;8.970;2022-11-27T03:13:27;5.70;99.90
18781;DHT22;9519;51.890;8.970;2022-11-27T03:18:37;5.60;99.90
18781;DHT22;9519;51.890;8.970;2022-11-27T03:23:43;5.70;99.90
18781;DHT22;9519;51.890;8.970;2022-11-27T03:28:46;5.60;99.90
18781;DHT22;9519;51.890;8.970;2022-11-27T03:33:53;5.60;99.90
18781;DHT22;9519;51.890;8.970;2022-11-27T03:38:55;5.60;99.90
18781;DHT22;9519;51.890;8.970;2022-11-27T03:44:04;5.60;99.90
18781;DHT22;9519;51.890;8.970;2022-11-27T03:49:21;5.60;99.90
18781;DHT22;9519;51.890;8.970;2022-11-27T03:54:46;5.60;99.90
18781;DHT22;9519;51.890;8.970;2022-11-27T03:59:56;5.50;99.90
18781;DHT22;9519;51.890;8.970;2022-11-27T04:05:02;5.50;99.90
18781;DHT22;9519;51.890;8.970;2022-11-27T04:10:06;5.50;99.90
18781;DHT22;9519;51.890;8.970;2022-11-27T04:15:10;5.60;99.90
18781;DHT22;9519;51.890;8.970;2022-11-27T04:20:14;5.70;99.90
18781;DHT22;9519;51.890;8.970;2022-11-27T04:25:18;5.40;99.90
18781;DHT22;9519;51.890;8.970;2022-11-27T04:30:20;5.40;99.90
18781;DHT22;9519;51.890;8.970;2022-11-27T04:35:24;5.60;99.90
18781;DHT22;9519;51.890;8.970;2022-11-27T04:40:26;5.40;99.90
18781;DHT22;9519;51.890;8.970;2022-11-27T04:45:28;5.40;99.90
18781;DHT22;9519;51.890;8.970;2022-11-27T04:50:32;5.30;99.90
18781;DHT22;9519;51.890;8.970;2022-11-27T04:55:34;5.20;99.90
18781;DHT22;9519;51.890;8.970;2022-11-27T05:00:36;5.30;99.90
18781;DHT22;9519;51.890;8.970;2022-11-27T05:05:39;5.30;99.90
18781;DHT22;9519;51.890;8.970;2022-11-27T05:10:41;5.30;99.90
18781;DHT22;9519;51.890;8.970;2022-11-27T05:15:43;5.30;99.90
18781;DHT22;9519;51.890;8.970;2022-11-27T05:20:47;5.30;99.90
18781;DHT22;9519;51.890;8.970;2022-11-27T05:25:56;5.30;99.90
18781;DHT22;9519;51.890;8.970;2022-11-27T05:30:58;5.30;99.90
18781;DHT22;9519;51.890;8.970;2022-11-27T05:36:02;5.30;99.90
18781;DHT22;9519;51.890;8.970;2022-11-27T05:41:05;5.20;99.90
18781;DHT22;9519;51.890;8.970;2022-11-27T05:46:08;5.20;99.90
18781;DHT22;9519;51.890;8.970;2022-11-27T05:51:13;5.20;99.90
18781;DHT22;9519;51.890;8.970;2022-11-27T05:56:16;5.20;99.90
18781;DHT22;9519;51.890;8.970;2022-11-27T06:01:19;5.20;99.90
18781;DHT22;9519;51.890;8.970;2022-11-27T06:06:23;5.20;99.90
18781;DHT22;9519;51.890;8.970;2022-11-27T06:11:26;5.20;99.90
18781;DHT22;9519;51.890;8.970;2022-11-27T06:16:28;5.40;99.90
18781;DHT22;9519;51.890;8.970;2022-11-27T06:21:32;5.30;99.90
18781;DHT22;9519;51.890;8.970;2022-11-27T06:26:34;5.20;99.90
18781;DHT22;9519;51.890;8.970;2022-11-27T06:31:36;5.20;99.90
18781;DHT22;9519;51.890;8.970;2022-11-27T06:36:41;5.10;99.90
18781;DHT22;9519;51.890;8.970;2022-11-27T06:41:43;5.00;99.90
18781;DHT22;9519;51.890;8.970;2022-11-27T06:46:45;5.10;99.90
18781;DHT22;9519;51.890;8.970;2022-11-27T06:51:48;5.00;99.90
18781;DHT22;9519;51.890;8.970;2022-11-27T06:56:52;5.00;99.90
18781;DHT22;9519;51.890;8.970;2022-11-27T07:01:54;5.00;99.90
18781;DHT22;9519;51.890;8.970;2022-11-27T07:06:58;5.00;99.90
18781;DHT22;9519;51.890;8.970;2022-11-27T07:12:00;5.00;99.90
18781;DHT22;9519;51.890;8.970;2022-11-27T07:17:02;5.00;99.90
18781;DHT22;9519;51.890;8.970;2022-11-27T07:22:05;5.00;99.90
18781;DHT22;9519;51.890;8.970;2022-11-27T07:27:07;5.10;99.90
18781;DHT22;9519;51.890;8.970;2022-11-27T07:32:09;5.10;99.90
18781;DHT22;9519;51.890;8.970;2022-11-27T07:37:12;5.10;99.90
18781;DHT22;9519;51.890;8.970;2022-11-27T07:42:14;5.20;99.90
18781;DHT22;9519;51.890;8.970;2022-11-27T07:47:16;5.20;99.90
18781;DHT22;9519;51.890;8.970;2022-11-27T07:52:20;5.30;99.90
18781;DHT22;9519;51.890;8.970;2022-11-27T07:57:22;5.30;99.90
18781;DHT22;9519;51.890;8.970;2022-11-27T08:02:24;5.40;99.90
18781;DHT22;9519;51.890;8.970;2022-11-27T08:07:28;5.40;99.90
18781;DHT22;9519;51.890;8.970;2022-11-27T08:12:31;5.40;99.90
18781;DHT22;9519;51.890;8.970;2022-11-27T08:17:33;5.50;99.90
18781;DHT22;9519;51.890;8.970;2022-11-27T08:22:36;5.50;99.90
18781;DHT22;9519;51.890;8.970;2022-11-27T08:27:39;5.60;99.90
18781;DHT22;9519;51.890;8.970;2022-11-27T08:32:42;5.70;99.90
18781;DHT22;9519;51.890;8.970;2022-11-27T08:37:46;5.80;99.90
18781;DHT22;9519;51.890;8.970;2022-11-27T08:42:48;5.80;99.90
18781;DHT22;9519;51.890;8.970;2022-11-27T08:47:50;5.90;99.90
18781;DHT22;9519;51.890;8.970;2022-11-27T08:52:53;5.90;99.90
18781;DHT22;9519;51.890;8.970;2022-11-27T08:57:56;6.00;99.90
18781;DHT22;9519;51.890;8.970;2022-11-27T09:02:59;6.10;99.90
18781;DHT22;9519;51.890;8.970;2022-11-27T09:08:02;6.10;99.90
18781;DHT22;9519;51.890;8.970;2022-11-27T09:13:04;6.30;99.90
18781;DHT22;9519;51.890;8.970;2022-11-27T09:18:07;6.40;99.90
18781;DHT22;9519;51.890;8.970;2022-11-27T09:23:10;6.50;99.90
18781;DHT22;9519;51.890;8.970;2022-11-27T09:28:12;6.60;99.90
18781;DHT22;9519;51.890;8.970;2022-11-27T09:33:14;6.70;99.90
18781;DHT22;9519;51.890;8.970;2022-11-27T09:38:17;6.90;99.90
18781;DHT22;9519;51.890;8.970;2022-11-27T09:43:28;7.00;99.90
18781;DHT22;9519;51.890;8.970;2022-11-27T09:48:38;7.10;99.90
18781;DHT22;9519;51.890;8.970;2022-11-27T09:53:49;7.20;99.90
18781;DHT22;9519;51.890;8.970;2022-11-27T09:58:57;7.20;99.90
18781;DHT22;9519;51.890;8.970;2022-11-27T10:04:01;7.30;99.90
18781;DHT22;9519;51.890;8.970;2022-11-27T10:09:12;7.40;99.90
18781;DHT22;9519;51.890;8.970;2022-11-27T10:14:32;7.40;99.90
18781;DHT22;9519;51.890;8.970;2022-11-27T10:19:46;7.50;99.90
18781;DHT22;9519;51.890;8.970;2022-11-27T10:25:02;7.60;99.90
18781;DHT22;9519;51.890;8.970;2022-11-27T10:30:15;7.70;99.90
18781;DHT22;9519;51.890;8.970;2022-11-27T10:35:21;7.80;99.90
18781;DHT22;9519;51.890;8.970;2022-11-27T10:40:30;7.90;99.90
18781;DHT22;9519;51.890;8.970;2022-11-27T10:45:41;7.90;99.90
18781;DHT22;9519;51.890;8.970;2022-11-27T10:50:46;8.00;99.90
18781;DHT22;9519;51.890;8.970;2022-11-27T10:56:26;8.10;99.90
18781;DHT22;9519;51.890;8.970;2022-11-27T11:01:44;8.10;99.90
18781;DHT22;9519;51.890;8.970;2022-11-27T11:06:48;8.10;99.90
18781;DHT22;9519;51.890;8.970;2022-11-27T11:11:51;8.20;99.90
18781;DHT22;9519;51.890;8.970;2022-11-27T11:16:54;8.20;99.90
18781;DHT22;9519;51.890;8.970;2022-11-27T11:21:56;8.30;99.90
18781;DHT22;9519;51.890;8.970;2022-11-27T11:27:05;8.30;99.90
18781;DHT22;9519;51.890;8.970;2022-11-27T11:32:20;8.40;99.90
18781;DHT22;9519;51.890;8.970;2022-11-27T11:37:26;8.40;99.90
18781;DHT22;9519;51.890;8.970;2022-11-27T11:42:33;8.50;99.90
18781;DHT22;9519;51.890;8.970;2022-11-27T11:47:44;8.60;99.90
18781;DHT22;9519;51.890;8.970;2022-11-27T11:52:53;8.70;99.90
18781;DHT22;9519;51.890;8.970;2022-11-27T11:58:20;8.80;99.90
18781;DHT22;9519;51.890;8.970;2022-11-27T12:03:50;8.80;99.90
18781;DHT22;9519;51.890;8.970;2022-11-27T12:09:12;8.80;99.90
18781;DHT22;9519;51.890;8.970;2022-11-27T12:14:35;8.90;99.90
18781;DHT22;9519;51.890;8.970;2022-11-27T12:19:57;8.90;99.90
18781;DHT22;9519;51.890;8.970;2022-11-27T12:25:21;9.00;99.90
18781;DHT22;9519;51.890;8.970;2022-11-27T12:30:37;9.10;99.90
18781;DHT22;9519;51.890;8.970;2022-11-27T12:35:55;9.10;99.90
18781;DHT22;9519;51.890;8.970;2022-11-27T12:41:17;9.20;99.90
18781;DHT22;9519;51.890;8.970;2022-11-27T12:46:50;9.20;99.90
18781;DHT22;9519;51.890;8.970;2022-11-27T12:52:04;9.30;99.90
18781;DHT22;9519;51.890;8.970;2022-11-27T12:57:15;9.30;99.90
18781;DHT22;9519;51.890;8.970;2022-11-27T13:02:30;9.30;99.90
18781;DHT22;9519;51.890;8.970;2022-11-27T13:07:42;9.40;99.90
18781;DHT22;9519;51.890;8.970;2022-11-27T13:12:52;9.40;99.90
18781;DHT22;9519;51.890;8.970;2022-11-27T13:18:09;9.50;99.90
18781;DHT22;9519;51.890;8.970;2022-11-27T13:23:17;9.50;99.90
18781;DHT22;9519;51.890;8.970;2022-11-27T13:28:24;9.60;99.90
18781;DHT22;9519;51.890;8.970;2022-11-27T13:33:36;9.60;99.90
18781;DHT22;9519;51.890;8.970;2022-11-27T13:38:40;9.60;99.90
18781;DHT22;9519;51.890;8.970;2022-11-27T13:43:46;9.60;99.90
18781;DHT22;9519;51.890;8.970;2022-11-27T13:48:53;9.60;99.90
18781;DHT22;9519;51.890;8.970;2022-11-27T13:54:09;9.70;99.90
18781;DHT22;9519;51.890;8.970;2022-11-27T13:59:15;9.70;99.90
18781;DHT22;9519;51.890;8.970;2022-11-27T14:04:20;9.70;99.90
18781;DHT22;9519;51.890;8.970;2022-11-27T14:09:32;9.60;99.90
18781;DHT22;9519;51.890;8.970;2022-11-27T14:14:37;9.60;99.90
18781;DHT22;9519;51.890;8.970;2022-11-27T14:19:44;9.50;99.90
18781;DHT22;9519;51.890;8.970;2022-11-27T14:24:53;9.50;99.90
18781;DHT22;9519;51.890;8.970;2022-11-27T14:29:55;9.40;99.90
18781;DHT22;9519;51.890;8.970;2022-11-27T14:34:59;9.40;99.90
18781;DHT22;9519;51.890;8.970;2022-11-27T14:40:12;9.30;99.90
18781;DHT22;9519;51.890;8.970;2022-11-27T14:45:17;9.30;99.90
18781;DHT22;9519;51.890;8.970;2022-11-27T14:50:22;9.30;99.90
18781;DHT22;9519;51.890;8.970;2022-11-27T14:55:25;9.20;99.90
18781;DHT22;9519;51.890;8.970;2022-11-27T15:00:28;9.20;99.90
18781;DHT22;9519;51.890;8.970;2022-11-27T15:05:35;9.20;99.90
18781;DHT22;9519;51.890;8.970;2022-11-27T15:10:39;9.10;99.90
18781;DHT22;9519;51.890;8.970;2022-11-27T15:15:43;9.10;99.90
18781;DHT22;9519;51.890;8.970;2022-11-27T15:20:56;9.10;99.90
18781;DHT22;9519;51.890;8.970;2022-11-27T15:26:08;9.00;99.90
18781;DHT22;9519;51.890;8.970;2022-11-27T15:31:23;9.00;99.70
18781;DHT22;9519;51.890;8.970;2022-11-27T15:36:37;9.00;99.60
18781;DHT22;9519;51.890;8.970;2022-11-27T15:41:50;9.00;99.60
18781;DHT22;9519;51.890;8.970;2022-11-27T15:46:58;9.00;99.70
18781;DHT22;9519;51.890;8.970;2022-11-27T15:52:03;9.00;99.60
18781;DHT22;9519;51.890;8.970;2022-11-27T15:57:05;9.00;99.50
18781;DHT22;9519;51.890;8.970;2022-11-27T16:02:09;9.00;99.30
18781;DHT22;9519;51.890;8.970;2022-11-27T16:07:14;9.00;99.30
18781;DHT22;9519;51.890;8.970;2022-11-27T16:12:16;9.00;99.40
18781;DHT22;9519;51.890;8.970;2022-11-27T16:17:18;8.90;99.10
18781;DHT22;9519;51.890;8.970;2022-11-27T16:22:21;8.90;99.10
18781;DHT22;9519;51.890;8.970;2022-11-27T16:27:23;8.90;99.00
18781;DHT22;9519;51.890;8.970;2022-11-27T16:32:25;8.90;98.90
18781;DHT22;9519;51.890;8.970;2022-11-27T16:37:28;8.80;98.90
18781;DHT22;9519;51.890;8.970;2022-11-27T16:42:30;8.80;98.90
18781;DHT22;9519;51.890;8.970;2022-11-27T16:47:33;8.80;98.80
18781;DHT22;9519;51.890;8.970;2022-11-27T16:52:36;8.80;98.90
18781;DHT22;9519;51.890;8.970;2022-11-27T16:57:38;8.80;98.70
18781;DHT22;9519;51.890;8.970;2022-11-27T17:02:40;8.80;98.90
18781;DHT22;9519;51.890;8.970;2022-11-27T17:07:44;8.70;98.70
18781;DHT22;9519;51.890;8.970;2022-11-27T17:12:47;8.70;98.70
18781;DHT22;9519;51.890;8.970;2022-11-27T17:17:49;8.70;98.90
18781;DHT22;9519;51.890;8.970;2022-11-27T17:22:57;8.70;98.50
18781;DHT22;9519;51.890;8.970;2022-11-27T17:27:59;8.70;98.40
18781;DHT22;9519;51.890;8.970;2022-11-27T17:33:01;8.70;98.30
18781;DHT22;9519;51.890;8.970;2022-11-27T17:38:04;8.70;98.50
18781;DHT22;9519;51.890;8.970;2022-11-27T17:43:06;8.60;98.20
18781;DHT22;9519;51.890;8.970;2022-11-27T17:48:08;8.60;98.20
18781;DHT22;9519;51.890;8.970;2022-11-27T17:53:12;8.60;98.00
18781;DHT22;9519;51.890;8.970;2022-11-27T17:58:14;8.60;98.00
18781;DHT22;9519;51.890;8.970;2022-11-27T18:03:16;8.60;98.00
18781;DHT22;9519;51.890;8.970;2022-11-27T18:08:19;8.60;97.90
18781;DHT22;9519;51.890;8.970;2022-11-27T18:13:22;8.60;97.80
18781;DHT22;9519;51.890;8.970;2022-11-27T18:18:25;8.50;97.70
18781;DHT22;9519;51.890;8.970;2022-11-27T18:23:29;8.50;97.70
18781;DHT22;9519;51.890;8.970;2022-11-27T18:28:31;8.50;97.80
18781;DHT22;9519;51.890;8.970;2022-11-27T18:33:33;8.50;97.70
18781;DHT22;9519;51.890;8.970;2022-11-27T18:38:38;8.50;97.60
18781;DHT22;9519;51.890;8.970;2022-11-27T18:43:43;8.50;97.50
18781;DHT22;9519;51.890;8.970;2022-11-27T18:48:46;8.50;97.50
18781;DHT22;9519;51.890;8.970;2022-11-27T18:53:51;8.50;97.40
18781;DHT22;9519;51.890;8.970;2022-11-27T18:58:54;8.50;97.50
18781;DHT22;9519;51.890;8.970;2022-11-27T19:03:58;8.50;97.80
18781;DHT22;9519;51.890;8.970;2022-11-27T19:09:03;8.50;97.40
18781;DHT22;9519;51.890;8.970;2022-11-27T19:14:06;8.50;97.40
18781;DHT22;9519;51.890;8.970;2022-11-27T19:19:09;8.50;97.40
18781;DHT22;9519;51.890;8.970;2022-11-27T19:24:14;8.50;97.40
18781;DHT22;9519;51.890;8.970;2022-11-27T19:29:16;8.40;97.60
18781;DHT22;9519;51.890;8.970;2022-11-27T19:34:18;8.50;97.20
18781;DHT22;9519;51.890;8.970;2022-11-27T19:39:22;8.40;97.10
18781;DHT22;9519;51.890;8.970;2022-11-27T19:44:24;8.40;97.10
18781;DHT22;9519;51.890;8.970;2022-11-27T19:49:26;8.40;97.10
18781;DHT22;9519;51.890;8.970;2022-11-27T19:54:29;8.40;97.20
18781;DHT22;9519;51.890;8.970;2022-11-27T19:59:31;8.40;97.20
18781;DHT22;9519;51.890;8.970;2022-11-27T20:04:34;8.40;97.10
18781;DHT22;9519;51.890;8.970;2022-11-27T20:09:37;8.30;96.90
18781;DHT22;9519;51.890;8.970;2022-11-27T20:14:39;8.30;97.00
18781;DHT22;9519;51.890;8.970;2022-11-27T20:19:41;8.30;97.00
18781;DHT22;9519;51.890;8.970;2022-11-27T20:24:45;8.30;97.00
18781;DHT22;9519;51.890;8.970;2022-11-27T20:29:47;8.20;96.80
18781;DHT22;9519;51.890;8.970;2022-11-27T20:34:49;8.20;96.90
18781;DHT22;9519;51.890;8.970;2022-11-27T20:39:52;8.20;97.00
18781;DHT22;9519;51.890;8.970;2022-11-27T20:44:54;8.20;96.90
18781;DHT22;9519;51.890;8.970;2022-11-27T20:49:56;8.10;97.00
18781;DHT22;9519;51.890;8.970;2022-11-27T20:55:00;8.10;96.90
18781;DHT22;9519;51.890;8.970;2022-11-27T21:00:02;8.10;96.90
18781;DHT22;9519;51.890;8.970;2022-11-27T21:05:05;8.00;96.90
18781;DHT22;9519;51.890;8.970;2022-11-27T21:10:12;8.00;96.90
18781;DHT22;9519;51.890;8.970;2022-11-27T21:15:16;8.00;96.90
18781;DHT22;9519;51.890;8.970;2022-11-27T21:20:18;8.00;96.90
18781;DHT22;9519;51.890;8.970;2022-11-27T21:25:22;8.00;96.90
18781;DHT22;9519;51.890;8.970;2022-11-27T21:30:24;7.90;96.90
18781;DHT22;9519;51.890;8.970;2022-11-27T21:35:26;7.90;96.90
18781;DHT22;9519;51.890;8.970;2022-11-27T21:40:30;7.90;97.00
18781;DHT22;9519;51.890;8.970;2022-11-27T21:45:35;7.80;97.10
18781;DHT22;9519;51.890;8.970;2022-11-27T21:50:37;7.80;97.10
18781;DHT22;9519;51.890;8.970;2022-11-27T21:55:41;7.80;97.20
18781;DHT22;9519;51.890;8.970;2022-11-27T22:00:44;7.70;97.40
18781;DHT22;9519;51.890;8.970;2022-11-27T22:05:46;7.70;97.50
18781;DHT22;9519;51.890;8.970;2022-11-27T22:10:49;7.70;97.60
18781;DHT22;9519;51.890;8.970;2022-11-27T22:15:51;7.60;97.70
18781;DHT22;9519;51.890;8.970;2022-11-27T22:20:53;7.60;97.70
18781;DHT22;9519;51.890;8.970;2022-11-27T22:26:00;7.60;97.70
18781;DHT22;9519;51.890;8.970;2022-11-27T22:31:06;7.50;97.70
18781;DHT22;9519;51.890;8.970;2022-11-27T22:36:13;7.50;97.80
18781;DHT22;9519;51.890;8.970;2022-11-27T22:41:18;7.40;97.80
18781;DHT22;9519;51.890;8.970;2022-11-27T22:46:23;7.30;97.80
18781;DHT22;9519;51.890;8.970;2022-11-27T22:51:28;7.30;97.80
18781;DHT22;9519;51.890;8.970;2022-11-27T22:56:33;7.20;97.90
18781;DHT22;9519;51.890;8.970;2022-11-27T23:01:38;7.20;97.90
18781;DHT22;9519;51.890;8.970;2022-11-27T23:06:41;7.20;97.90
18781;DHT22;9519;51.890;8.970;2022-11-27T23:11:47;7.20;98.00
18781;DHT22;9519;51.890;8.970;2022-11-27T23:16:49;7.20;98.00
18781;DHT22;9519;51.890;8.970;2022-11-27T23:21:51;7.20;98.00
18781;DHT22;9519;51.890;8.970;2022-11-27T23:26:55;7.30;98.10
18781;DHT22;9519;51.890;8.970;2022-11-27T23:31:57;7.20;97.90
18781;DHT22;9519;51.890;8.970;2022-11-27T23:36:59;7.30;97.90
18781;DHT22;9519;51.890;8.970;2022-11-27T23:42:02;7.20;97.90
18781;DHT22;9519;51.890;8.970;2022-11-27T23:47:05;7.20;97.90
18781;DHT22;9519;51.890;8.970;2022-11-27T23:52:07;7.20;97.90
18781;DHT22;9519;51.890;8.970;2022-11-27T23:57:11;7.20;97.90
